Havelock, Nebraska
Current Conditions -  °F | °C
As of 6:54 PM on Saturday 20 Dec 2014 (Local Time) from KLNK Reporting Station
Haze Haze  
Wind Chill: -2°   Ceiling: 800
Heat Index:   Visibility: 6mi
Dew Point:   Wind: 10mph
Humidity: 89%   Direction: 140°SE
Pressure: 30.07"   Gusts: NA
Location:  40.8505°N, 96.6337°W
Report Text: KLNK 210054Z 14009KT 6SM BR OVC008 02/01 A3007 RMK AO2 SLP192 T00220006
Loading
Personal Weather Stations






























Interactive Weather Map New forecast layout! Learn more

10-Day Weather Forecast

Advertisements
Track Severe Weather on mobile